sensor_id;sensor_type;location;lat;lon;timestamp;pressure;altitude;pressure_sealevel;temperature;humidity
10946;BME280;5525;42.648;23.368;2023-01-31T00:02:17;94216.03;;;0.25;100.00
10946;BME280;5525;42.648;23.368;2023-01-31T00:04:45;94246.88;;;0.16;100.00
10946;BME280;5525;42.648;23.368;2023-01-31T00:07:12;94241.28;;;0.23;100.00
10946;BME280;5525;42.648;23.368;2023-01-31T00:09:39;94245.25;;;0.25;100.00
10946;BME280;5525;42.648;23.368;2023-01-31T00:12:07;94249.53;;;0.16;100.00
10946;BME280;5525;42.648;23.368;2023-01-31T00:14:34;94242.41;;;-0.04;100.00
10946;BME280;5525;42.648;23.368;2023-01-31T00:17:02;94241.28;;;0.18;100.00
10946;BME280;5525;42.648;23.368;2023-01-31T00:19:29;94233.06;;;0.14;100.00
10946;BME280;5525;42.648;23.368;2023-01-31T00:21:56;94209.22;;;0.09;100.00
10946;BME280;5525;42.648;23.368;2023-01-31T00:24:24;94235.69;;;0.29;100.00
10946;BME280;5525;42.648;23.368;2023-01-31T00:26:51;94184.25;;;0.05;100.00
10946;BME280;5525;42.648;23.368;2023-01-31T00:29:21;94225.63;;;0.26;100.00
10946;BME280;5525;42.648;23.368;2023-01-31T00:31:49;94221.63;;;0.19;100.00
10946;BME280;5525;42.648;23.368;2023-01-31T00:34:19;94220.69;;;-0.16;100.00
10946;BME280;5525;42.648;23.368;2023-01-31T00:36:47;94181.44;;;-0.29;100.00
10946;BME280;5525;42.648;23.368;2023-01-31T00:39:16;94234.19;;;-0.12;100.00
10946;BME280;5525;42.648;23.368;2023-01-31T00:41:43;94255.09;;;0.10;100.00
10946;BME280;5525;42.648;23.368;2023-01-31T00:44:10;94248.69;;;0.26;100.00
10946;BME280;5525;42.648;23.368;2023-01-31T00:46:37;94245.78;;;0.27;100.00
10946;BME280;5525;42.648;23.368;2023-01-31T00:49:04;94240.41;;;0.37;100.00
10946;BME280;5525;42.648;23.368;2023-01-31T00:51:33;94249.72;;;0.35;100.00
10946;BME280;5525;42.648;23.368;2023-01-31T00:54:00;94233.03;;;0.24;100.00
10946;BME280;5525;42.648;23.368;2023-01-31T00:56:27;94233.31;;;0.28;100.00
10946;BME280;5525;42.648;23.368;2023-01-31T00:58:55;94204.94;;;0.13;100.00
10946;BME280;5525;42.648;23.368;2023-01-31T01:01:23;94230.88;;;0.31;100.00
10946;BME280;5525;42.648;23.368;2023-01-31T01:03:52;94224.22;;;0.39;100.00
10946;BME280;5525;42.648;23.368;2023-01-31T01:06:20;94206.78;;;0.18;100.00
10946;BME280;5525;42.648;23.368;2023-01-31T01:08:49;94220.09;;;0.03;100.00
10946;BME280;5525;42.648;23.368;2023-01-31T01:11:18;94197.78;;;0.03;100.00
10946;BME280;5525;42.648;23.368;2023-01-31T01:13:46;94238.56;;;0.33;100.00
10946;BME280;5525;42.648;23.368;2023-01-31T01:16:16;94242.09;;;0.08;100.00
10946;BME280;5525;42.648;23.368;2023-01-31T01:18:44;94239.47;;;0.03;100.00
10946;BME280;5525;42.648;23.368;2023-01-31T01:21:15;94246.91;;;-0.09;100.00
10946;BME280;5525;42.648;23.368;2023-01-31T01:23:43;94208.25;;;-0.40;100.00
10946;BME280;5525;42.648;23.368;2023-01-31T01:26:21;94211.91;;;-0.21;100.00
10946;BME280;5525;42.648;23.368;2023-01-31T01:28:50;94216.19;;;-0.20;100.00
10946;BME280;5525;42.648;23.368;2023-01-31T01:31:19;94229.44;;;-0.20;100.00
10946;BME280;5525;42.648;23.368;2023-01-31T01:33:47;94222.78;;;-0.18;100.00
10946;BME280;5525;42.648;23.368;2023-01-31T01:36:16;94223.78;;;0.07;100.00
10946;BME280;5525;42.648;23.368;2023-01-31T01:38:47;94180.84;;;-0.06;100.00
10946;BME280;5525;42.648;23.368;2023-01-31T01:41:18;94170.78;;;-0.09;100.00
10946;BME280;5525;42.648;23.368;2023-01-31T01:43:48;94215.00;;;0.21;100.00
10946;BME280;5525;42.648;23.368;2023-01-31T01:46:24;94189.47;;;0.35;100.00
10946;BME280;5525;42.648;23.368;2023-01-31T01:48:57;94202.31;;;0.72;100.00
10946;BME280;5525;42.648;23.368;2023-01-31T01:51:26;94192.88;;;0.89;94.79
10946;BME280;5525;42.648;23.368;2023-01-31T01:53:57;94203.75;;;0.93;92.02
10946;BME280;5525;42.648;23.368;2023-01-31T01:56:32;94190.66;;;1.06;86.68
10946;BME280;5525;42.648;23.368;2023-01-31T01:59:05;94184.78;;;1.09;83.69
10946;BME280;5525;42.648;23.368;2023-01-31T02:01:35;94199.31;;;1.22;83.44
10946;BME280;5525;42.648;23.368;2023-01-31T02:04:05;94196.34;;;1.28;83.60
10946;BME280;5525;42.648;23.368;2023-01-31T02:06:33;94187.50;;;1.38;80.48
10946;BME280;5525;42.648;23.368;2023-01-31T02:09:02;94163.97;;;1.21;79.37
10946;BME280;5525;42.648;23.368;2023-01-31T02:11:34;94195.22;;;1.34;78.93
10946;BME280;5525;42.648;23.368;2023-01-31T02:14:03;94204.28;;;1.33;78.45
10946;BME280;5525;42.648;23.368;2023-01-31T02:16:31;94205.59;;;1.36;77.42
10946;BME280;5525;42.648;23.368;2023-01-31T02:18:59;94189.72;;;1.26;77.53
10946;BME280;5525;42.648;23.368;2023-01-31T02:22:02;94185.56;;;1.15;75.71
10946;BME280;5525;42.648;23.368;2023-01-31T02:24:53;94199.03;;;1.23;75.69
10946;BME280;5525;42.648;23.368;2023-01-31T02:27:46;94209.16;;;1.21;76.15
10946;BME280;5525;42.648;23.368;2023-01-31T02:30:40;94178.19;;;1.02;78.38
10946;BME280;5525;42.648;23.368;2023-01-31T02:33:20;94192.75;;;1.09;76.98
10946;BME280;5525;42.648;23.368;2023-01-31T02:35:57;94186.44;;;1.00;76.76
10946;BME280;5525;42.648;23.368;2023-01-31T02:38:38;94195.78;;;0.93;78.45
10946;BME280;5525;42.648;23.368;2023-01-31T02:41:15;94188.91;;;0.87;79.11
10946;BME280;5525;42.648;23.368;2023-01-31T02:43:51;94185.72;;;0.90;77.81
10946;BME280;5525;42.648;23.368;2023-01-31T02:46:42;94189.94;;;0.91;77.60
10946;BME280;5525;42.648;23.368;2023-01-31T02:49:20;94192.00;;;1.04;77.24
10946;BME280;5525;42.648;23.368;2023-01-31T02:52:07;94198.63;;;1.06;76.67
10946;BME280;5525;42.648;23.368;2023-01-31T02:54:57;94198.91;;;1.05;78.83
10946;BME280;5525;42.648;23.368;2023-01-31T02:57:44;94219.06;;;1.11;80.92
10946;BME280;5525;42.648;23.368;2023-01-31T03:00:12;94213.53;;;1.02;81.79
10946;BME280;5525;42.648;23.368;2023-01-31T03:02:40;94250.47;;;1.09;84.19
10946;BME280;5525;42.648;23.368;2023-01-31T03:05:13;94216.75;;;0.99;84.17
10946;BME280;5525;42.648;23.368;2023-01-31T03:07:43;94222.88;;;1.00;85.34
10946;BME280;5525;42.648;23.368;2023-01-31T03:10:19;94213.13;;;0.85;87.52
10946;BME280;5525;42.648;23.368;2023-01-31T03:13:00;94246.00;;;0.99;89.24
10946;BME280;5525;42.648;23.368;2023-01-31T03:15:39;94243.06;;;1.01;90.91
10946;BME280;5525;42.648;23.368;2023-01-31T03:18:26;94271.00;;;0.98;92.83
10946;BME280;5525;42.648;23.368;2023-01-31T03:21:02;94259.59;;;0.88;95.97
10946;BME280;5525;42.648;23.368;2023-01-31T03:23:32;94239.50;;;0.72;97.79
10946;BME280;5525;42.648;23.368;2023-01-31T03:26:03;94271.03;;;0.83;100.00
10946;BME280;5525;42.648;23.368;2023-01-31T03:28:34;94276.13;;;0.80;100.00
10946;BME280;5525;42.648;23.368;2023-01-31T03:31:04;94266.31;;;0.75;100.00
10946;BME280;5525;42.648;23.368;2023-01-31T03:33:35;94268.47;;;0.68;100.00
10946;BME280;5525;42.648;23.368;2023-01-31T03:36:11;94285.19;;;0.74;100.00
10946;BME280;5525;42.648;23.368;2023-01-31T03:38:49;94285.75;;;0.66;100.00
10946;BME280;5525;42.648;23.368;2023-01-31T03:41:23;94293.91;;;0.79;100.00
10946;BME280;5525;42.648;23.368;2023-01-31T03:44:00;94278.88;;;0.60;100.00
10946;BME280;5525;42.648;23.368;2023-01-31T03:46:34;94286.28;;;0.63;100.00
10946;BME280;5525;42.648;23.368;2023-01-31T03:49:07;94302.97;;;0.78;100.00
10946;BME280;5525;42.648;23.368;2023-01-31T03:51:42;94313.88;;;0.77;100.00
10946;BME280;5525;42.648;23.368;2023-01-31T03:54:17;94315.19;;;0.69;100.00
10946;BME280;5525;42.648;23.368;2023-01-31T03:56:49;94278.09;;;0.49;100.00
10946;BME280;5525;42.648;23.368;2023-01-31T03:59:22;94302.50;;;0.56;100.00
10946;BME280;5525;42.648;23.368;2023-01-31T04:01:54;94303.31;;;0.47;100.00
10946;BME280;5525;42.648;23.368;2023-01-31T04:04:27;94314.50;;;0.49;100.00
10946;BME280;5525;42.648;23.368;2023-01-31T04:07:00;94326.16;;;0.53;100.00
10946;BME280;5525;42.648;23.368;2023-01-31T04:09:28;94294.00;;;0.54;100.00
10946;BME280;5525;42.648;23.368;2023-01-31T04:11:58;94312.38;;;0.51;100.00
10946;BME280;5525;42.648;23.368;2023-01-31T04:14:25;94299.09;;;0.41;100.00
10946;BME280;5525;42.648;23.368;2023-01-31T04:16:52;94302.56;;;0.41;100.00
10946;BME280;5525;42.648;23.368;2023-01-31T04:19:19;94315.56;;;0.48;100.00
10946;BME280;5525;42.648;23.368;2023-01-31T04:21:47;94305.72;;;0.43;100.00
10946;BME280;5525;42.648;23.368;2023-01-31T04:24:17;94311.28;;;0.52;100.00
10946;BME280;5525;42.648;23.368;2023-01-31T04:26:45;94312.38;;;0.51;100.00
10946;BME280;5525;42.648;23.368;2023-01-31T04:29:12;94333.34;;;0.47;100.00
10946;BME280;5525;42.648;23.368;2023-01-31T04:31:40;94277.69;;;0.12;100.00
10946;BME280;5525;42.648;23.368;2023-01-31T04:34:07;94328.31;;;0.36;100.00
10946;BME280;5525;42.648;23.368;2023-01-31T04:36:34;94327.00;;;0.33;100.00
10946;BME280;5525;42.648;23.368;2023-01-31T04:39:01;94326.72;;;0.30;100.00
10946;BME280;5525;42.648;23.368;2023-01-31T04:41:30;94319.56;;;0.25;100.00
10946;BME280;5525;42.648;23.368;2023-01-31T04:43:58;94326.50;;;0.21;100.00
10946;BME280;5525;42.648;23.368;2023-01-31T04:46:26;94337.91;;;0.12;100.00
10946;BME280;5525;42.648;23.368;2023-01-31T04:48:53;94341.09;;;0.09;100.00
10946;BME280;5525;42.648;23.368;2023-01-31T04:51:20;94337.94;;;0.02;100.00
10946;BME280;5525;42.648;23.368;2023-01-31T04:53:47;94345.59;;;0.08;100.00
10946;BME280;5525;42.648;23.368;2023-01-31T04:56:14;94357.03;;;0.14;100.00
10946;BME280;5525;42.648;23.368;2023-01-31T04:58:43;94359.41;;;0.15;100.00
10946;BME280;5525;42.648;23.368;2023-01-31T05:01:10;94328.91;;;-0.08;100.00
10946;BME280;5525;42.648;23.368;2023-01-31T05:03:37;94360.22;;;0.06;100.00
10946;BME280;5525;42.648;23.368;2023-01-31T05:06:05;94365.50;;;0.16;100.00
10946;BME280;5525;42.648;23.368;2023-01-31T05:08:33;94356.22;;;0.08;100.00
10946;BME280;5525;42.648;23.368;2023-01-31T05:11:01;94351.72;;;0.14;100.00
10946;BME280;5525;42.648;23.368;2023-01-31T05:13:30;94354.88;;;0.21;100.00
10946;BME280;5525;42.648;23.368;2023-01-31T05:15:59;94350.13;;;0.23;100.00
10946;BME280;5525;42.648;23.368;2023-01-31T05:18:26;94355.16;;;0.24;100.00
10946;BME280;5525;42.648;23.368;2023-01-31T05:20:53;94356.47;;;0.27;100.00
10946;BME280;5525;42.648;23.368;2023-01-31T05:23:20;94365.50;;;0.26;100.00
10946;BME280;5525;42.648;23.368;2023-01-31T05:25:48;94363.41;;;0.28;100.00
10946;BME280;5525;42.648;23.368;2023-01-31T05:28:16;94384.09;;;0.31;100.00
10946;BME280;5525;42.648;23.368;2023-01-31T05:30:43;94368.72;;;0.28;100.00
10946;BME280;5525;42.648;23.368;2023-01-31T05:33:11;94346.13;;;0.30;100.00
10946;BME280;5525;42.648;23.368;2023-01-31T05:35:38;94350.34;;;0.31;100.00
10946;BME280;5525;42.648;23.368;2023-01-31T05:38:06;94329.69;;;0.13;100.00
10946;BME280;5525;42.648;23.368;2023-01-31T05:40:33;94338.97;;;0.16;100.00
10946;BME280;5525;42.648;23.368;2023-01-31T05:43:00;94369.47;;;0.33;100.00
10946;BME280;5525;42.648;23.368;2023-01-31T05:45:27;94360.97;;;0.31;100.00
10946;BME280;5525;42.648;23.368;2023-01-31T05:47:56;94370.25;;;0.39;100.00
10946;BME280;5525;42.648;23.368;2023-01-31T05:50:24;94365.75;;;0.44;100.00
10946;BME280;5525;42.648;23.368;2023-01-31T05:52:52;94352.25;;;0.31;100.00
10946;BME280;5525;42.648;23.368;2023-01-31T05:55:21;94347.44;;;0.38;100.00
10946;BME280;5525;42.648;23.368;2023-01-31T05:57:48;94373.19;;;0.42;100.00
10946;BME280;5525;42.648;23.368;2023-01-31T06:00:16;94383.81;;;0.52;100.00
10946;BME280;5525;42.648;23.368;2023-01-31T06:02:44;94369.22;;;0.40;100.00
10946;BME280;5525;42.648;23.368;2023-01-31T06:05:13;94375.53;;;0.59;100.00
10946;BME280;5525;42.648;23.368;2023-01-31T06:07:42;94381.66;;;0.59;100.00
10946;BME280;5525;42.648;23.368;2023-01-31T06:10:10;94382.72;;;0.58;100.00
10946;BME280;5525;42.648;23.368;2023-01-31T06:12:38;94380.34;;;0.57;100.00
10946;BME280;5525;42.648;23.368;2023-01-31T06:15:05;94368.41;;;0.49;100.00
10946;BME280;5525;42.648;23.368;2023-01-31T06:17:32;94395.16;;;0.73;100.00
10946;BME280;5525;42.648;23.368;2023-01-31T06:19:59;94395.16;;;0.73;100.00
10946;BME280;5525;42.648;23.368;2023-01-31T06:22:26;94394.63;;;0.86;100.00
10946;BME280;5525;42.648;23.368;2023-01-31T06:24:54;94416.94;;;0.85;100.00
10946;BME280;5525;42.648;23.368;2023-01-31T06:27:22;94414.53;;;0.88;100.00
10946;BME280;5525;42.648;23.368;2023-01-31T06:29:49;94411.06;;;0.93;100.00
10946;BME280;5525;42.648;23.368;2023-01-31T06:32:16;94414.25;;;0.90;100.00
10946;BME280;5525;42.648;23.368;2023-01-31T06:34:43;94422.50;;;0.98;100.00
10946;BME280;5525;42.648;23.368;2023-01-31T06:37:10;94408.41;;;0.98;100.00
10946;BME280;5525;42.648;23.368;2023-01-31T06:39:36;94399.13;;;0.90;100.00
10946;BME280;5525;42.648;23.368;2023-01-31T06:42:05;94416.59;;;1.06;100.00
10946;BME280;5525;42.648;23.368;2023-01-31T06:44:32;94421.91;;;1.06;100.00
10946;BME280;5525;42.648;23.368;2023-01-31T06:47:01;94422.47;;;1.03;100.00
10946;BME280;5525;42.648;23.368;2023-01-31T06:49:28;94430.16;;;1.10;100.00
10946;BME280;5525;42.648;23.368;2023-01-31T06:51:55;94421.09;;;1.16;100.00
10946;BME280;5525;42.648;23.368;2023-01-31T06:54:22;94427.75;;;1.13;100.00
10946;BME280;5525;42.648;23.368;2023-01-31T06:56:50;94435.41;;;1.25;100.00
10946;BME280;5525;42.648;23.368;2023-01-31T06:59:21;94449.03;;;1.18;100.00
10946;BME280;5525;42.648;23.368;2023-01-31T07:01:48;94442.63;;;1.14;100.00
10946;BME280;5525;42.648;23.368;2023-01-31T07:04:16;94427.00;;;1.03;100.00
10946;BME280;5525;42.648;23.368;2023-01-31T07:06:44;94425.88;;;1.14;100.00
10946;BME280;5525;42.648;23.368;2023-01-31T07:09:13;94438.63;;;1.22;100.00
10946;BME280;5525;42.648;23.368;2023-01-31T07:15:17;94441.81;;;1.24;100.00
10946;BME280;5525;42.648;23.368;2023-01-31T07:17:45;94437.81;;;1.26;100.00
10946;BME280;5525;42.648;23.368;2023-01-31T07:20:12;94436.44;;;1.34;100.00
10946;BME280;5525;42.648;23.368;2023-01-31T07:22:39;94448.63;;;1.50;100.00
10946;BME280;5525;42.648;23.368;2023-01-31T07:25:07;94448.09;;;1.48;100.00
10946;BME280;5525;42.648;23.368;2023-01-31T07:27:34;94445.22;;;1.39;100.00
10946;BME280;5525;42.648;23.368;2023-01-31T07:30:02;94444.16;;;1.35;100.00
10946;BME280;5525;42.648;23.368;2023-01-31T07:32:32;94447.63;;;1.31;100.00
10946;BME280;5525;42.648;23.368;2023-01-31T07:34:59;94446.25;;;1.43;100.00
10946;BME280;5525;42.648;23.368;2023-01-31T07:37:27;94413.41;;;1.09;100.00
10946;BME280;5525;42.648;23.368;2023-01-31T07:39:54;94428.22;;;1.30;100.00
10946;BME280;5525;42.648;23.368;2023-01-31T07:42:21;94414.94;;;1.25;100.00
10946;BME280;5525;42.648;23.368;2023-01-31T07:44:48;94440.09;;;1.53;100.00
10946;BME280;5525;42.648;23.368;2023-01-31T07:47:16;94437.78;;;1.36;100.00
10946;BME280;5525;42.648;23.368;2023-01-31T07:49:44;94431.59;;;1.51;100.00
10946;BME280;5525;42.648;23.368;2023-01-31T07:52:13;94454.94;;;1.64;100.00
10946;BME280;5525;42.648;23.368;2023-01-31T07:54:40;94437.63;;;1.66;100.00
10946;BME280;5525;42.648;23.368;2023-01-31T07:57:07;94442.44;;;1.64;100.00
10946;BME280;5525;42.648;23.368;2023-01-31T07:59:35;94439.50;;;1.66;100.00
10946;BME280;5525;42.648;23.368;2023-01-31T08:02:03;94405.50;;;1.53;100.00
10946;BME280;5525;42.648;23.368;2023-01-31T08:04:49;94444.78;;;1.76;100.00
10946;BME280;5525;42.648;23.368;2023-01-31T08:07:17;94406.25;;;1.63;100.00
10946;BME280;5525;42.648;23.368;2023-01-31T08:09:44;94443.66;;;1.87;100.00
10946;BME280;5525;42.648;23.368;2023-01-31T08:12:15;94436.78;;;1.76;100.00
10946;BME280;5525;42.648;23.368;2023-01-31T08:14:43;94429.66;;;1.66;100.00
10946;BME280;5525;42.648;23.368;2023-01-31T08:17:10;94409.25;;;1.52;100.00
10946;BME280;5525;42.648;23.368;2023-01-31T08:19:38;94430.38;;;1.82;100.00
10946;BME280;5525;42.648;23.368;2023-01-31T08:22:07;94435.88;;;1.96;100.00
10946;BME280;5525;42.648;23.368;2023-01-31T08:24:35;94400.66;;;2.04;100.00
10946;BME280;5525;42.648;23.368;2023-01-31T08:27:03;94427.91;;;2.29;100.00
10946;BME280;5525;42.648;23.368;2023-01-31T08:29:37;94420.75;;;2.58;100.00
10946;BME280;5525;42.648;23.368;2023-01-31T08:32:15;94422.16;;;2.79;100.00
10946;BME280;5525;42.648;23.368;2023-01-31T08:34:48;94409.88;;;2.78;100.00
10946;BME280;5525;42.648;23.368;2023-01-31T08:37:18;94388.41;;;2.41;100.00
10946;BME280;5525;42.648;23.368;2023-01-31T08:39:46;94408.28;;;2.82;100.00
10946;BME280;5525;42.648;23.368;2023-01-31T08:42:15;94407.38;;;2.63;100.00
10946;BME280;5525;42.648;23.368;2023-01-31T08:44:43;94410.41;;;2.80;100.00
10946;BME280;5525;42.648;23.368;2023-01-31T08:47:16;94428.34;;;2.75;100.00
10946;BME280;5525;42.648;23.368;2023-01-31T08:49:44;94404.66;;;2.68;100.00
10946;BME280;5525;42.648;23.368;2023-01-31T08:52:13;94428.34;;;2.75;100.00
10946;BME280;5525;42.648;23.368;2023-01-31T08:54:41;94417.63;;;2.51;100.00
10946;BME280;5525;42.648;23.368;2023-01-31T08:57:09;94391.53;;;2.15;100.00
10946;BME280;5525;42.648;23.368;2023-01-31T08:59:38;94438.66;;;2.53;100.00
10946;BME280;5525;42.648;23.368;2023-01-31T09:02:07;94425.81;;;2.60;100.00
10946;BME280;5525;42.648;23.368;2023-01-31T09:04:35;94428.78;;;2.82;100.00
10946;BME280;5525;42.648;23.368;2023-01-31T09:07:03;94413.97;;;2.99;100.00
10946;BME280;5525;42.648;23.368;2023-01-31T09:09:33;94429.84;;;3.09;100.00
10946;BME280;5525;42.648;23.368;2023-01-31T09:12:07;94418.81;;;2.92;100.00
10946;BME280;5525;42.648;23.368;2023-01-31T09:14:35;94429.19;;;3.22;100.00
10946;BME280;5525;42.648;23.368;2023-01-31T09:17:03;94436.09;;;3.23;100.00
10946;BME280;5525;42.648;23.368;2023-01-31T09:19:33;94439.34;;;3.44;100.00
10946;BME280;5525;42.648;23.368;2023-01-31T09:22:00;94415.53;;;3.47;100.00
10946;BME280;5525;42.648;23.368;2023-01-31T09:24:28;94407.59;;;3.19;100.00
10946;BME280;5525;42.648;23.368;2023-01-31T09:26:55;94410.13;;;3.10;100.00
10946;BME280;5525;42.648;23.368;2023-01-31T09:29:24;94412.25;;;3.08;100.00
10946;BME280;5525;42.648;23.368;2023-01-31T09:31:52;94402.66;;;3.55;100.00
10946;BME280;5525;42.648;23.368;2023-01-31T09:34:20;94404.84;;;3.29;100.00
10946;BME280;5525;42.648;23.368;2023-01-31T09:36:48;94388.41;;;3.40;100.00
10946;BME280;5525;42.648;23.368;2023-01-31T09:39:16;94367.53;;;3.24;100.00
10946;BME280;5525;42.648;23.368;2023-01-31T09:41:45;94392.91;;;3.21;100.00
10946;BME280;5525;42.648;23.368;2023-01-31T09:44:18;94383.06;;;3.40;100.00
10946;BME280;5525;42.648;23.368;2023-01-31T09:46:53;94382.25;;;3.64;100.00
10946;BME280;5525;42.648;23.368;2023-01-31T09:49:25;94380.00;;;3.89;100.00
10946;BME280;5525;42.648;23.368;2023-01-31T09:51:57;94371.84;;;3.99;100.00
10946;BME280;5525;42.648;23.368;2023-01-31T09:54:27;94391.56;;;4.03;100.00
10946;BME280;5525;42.648;23.368;2023-01-31T09:57:04;94392.78;;;4.11;100.00
10946;BME280;5525;42.648;23.368;2023-01-31T09:59:41;94358.16;;;3.87;100.00
10946;BME280;5525;42.648;23.368;2023-01-31T10:02:35;94388.53;;;3.73;100.00
10946;BME280;5525;42.648;23.368;2023-01-31T10:05:17;94372.19;;;3.56;100.00
10946;BME280;5525;42.648;23.368;2023-01-31T10:07:54;94382.47;;;3.67;100.00
10946;BME280;5525;42.648;23.368;2023-01-31T10:10:32;94376.56;;;4.39;100.00
10946;BME280;5525;42.648;23.368;2023-01-31T10:13:05;94390.50;;;4.55;100.00
10946;BME280;5525;42.648;23.368;2023-01-31T10:15:41;94383.63;;;3.98;100.00
10946;BME280;5525;42.648;23.368;2023-01-31T10:18:16;94339.81;;;3.62;100.00
10946;BME280;5525;42.648;23.368;2023-01-31T10:20:49;94386.72;;;4.24;100.00
10946;BME280;5525;42.648;23.368;2023-01-31T10:23:24;94385.16;;;4.04;100.00
10946;BME280;5525;42.648;23.368;2023-01-31T10:25:57;94374.47;;;4.04;100.00
10946;BME280;5525;42.648;23.368;2023-01-31T10:28:31;94375.94;;;4.29;100.00
10946;BME280;5525;42.648;23.368;2023-01-31T10:31:05;94341.91;;;3.84;100.00
10946;BME280;5525;42.648;23.368;2023-01-31T10:33:44;94365.50;;;3.58;100.00
10946;BME280;5525;42.648;23.368;2023-01-31T10:36:23;94378.63;;;3.55;100.00
10946;BME280;5525;42.648;23.368;2023-01-31T10:38:59;94360.88;;;3.64;100.00
10946;BME280;5525;42.648;23.368;2023-01-31T10:41:39;94360.88;;;4.01;100.00
10946;BME280;5525;42.648;23.368;2023-01-31T10:44:17;94335.19;;;3.68;100.00
10946;BME280;5525;42.648;23.368;2023-01-31T10:46:46;94343.59;;;3.80;100.00
10946;BME280;5525;42.648;23.368;2023-01-31T10:49:17;94359.66;;;3.93;100.00
10946;BME280;5525;42.648;23.368;2023-01-31T10:52:05;94378.31;;;4.62;100.00
10946;BME280;5525;42.648;23.368;2023-01-31T10:54:41;94382.78;;;4.35;100.00
10946;BME280;5525;42.648;23.368;2023-01-31T10:57:13;94365.47;;;4.14;100.00
10946;BME280;5525;42.648;23.368;2023-01-31T10:59:45;94378.28;;;3.80;100.00
10946;BME280;5525;42.648;23.368;2023-01-31T11:02:17;94388.44;;;3.59;100.00
10946;BME280;5525;42.648;23.368;2023-01-31T11:04:48;94366.78;;;3.61;100.00
10946;BME280;5525;42.648;23.368;2023-01-31T11:07:17;94376.72;;;3.36;100.00
10946;BME280;5525;42.648;23.368;2023-01-31T11:09:48;94393.94;;;3.25;100.00
10946;BME280;5525;42.648;23.368;2023-01-31T11:12:18;94368.81;;;2.84;100.00
10946;BME280;5525;42.648;23.368;2023-01-31T11:15:05;94364.28;;;2.80;100.00
10946;BME280;5525;42.648;23.368;2023-01-31T11:51:38;94376.97;;;3.16;100.00
10946;BME280;5525;42.648;23.368;2023-01-31T11:54:13;94348.38;;;2.75;100.00
10946;BME280;5525;42.648;23.368;2023-01-31T11:56:45;94374.53;;;2.68;100.00
10946;BME280;5525;42.648;23.368;2023-01-31T11:59:17;94383.38;;;2.63;100.00
10946;BME280;5525;42.648;23.368;2023-01-31T12:01:51;94360.00;;;2.55;100.00
10946;BME280;5525;42.648;23.368;2023-01-31T12:04:22;94377.84;;;2.83;100.00
10946;BME280;5525;42.648;23.368;2023-01-31T12:06:58;94372.72;;;2.63;100.00
10946;BME280;5525;42.648;23.368;2023-01-31T12:09:28;94384.94;;;2.41;100.00
10946;BME280;5525;42.648;23.368;2023-01-31T12:11:59;94378.06;;;2.35;100.00
10946;BME280;5525;42.648;23.368;2023-01-31T12:14:37;94373.88;;;2.24;100.00
10946;BME280;5525;42.648;23.368;2023-01-31T12:17:06;94386.75;;;2.17;100.00
10946;BME280;5525;42.648;23.368;2023-01-31T12:19:53;94374.88;;;2.33;100.00
10946;BME280;5525;42.648;23.368;2023-01-31T12:22:26;94342.19;;;1.94;100.00
10946;BME280;5525;42.648;23.368;2023-01-31T12:25:03;94367.19;;;2.26;100.00
10946;BME280;5525;42.648;23.368;2023-01-31T12:27:45;94379.03;;;2.44;100.00
10946;BME280;5525;42.648;23.368;2023-01-31T12:30:24;94363.59;;;2.46;100.00
10946;BME280;5525;42.648;23.368;2023-01-31T12:33:08;94383.63;;;2.67;100.00
10946;BME280;5525;42.648;23.368;2023-01-31T12:35:50;94384.59;;;2.76;100.00
10946;BME280;5525;42.648;23.368;2023-01-31T12:38:33;94364.00;;;2.58;100.00
10946;BME280;5525;42.648;23.368;2023-01-31T12:41:15;94379.31;;;2.71;100.00
10946;BME280;5525;42.648;23.368;2023-01-31T12:43:56;94381.81;;;2.62;100.00
10946;BME280;5525;42.648;23.368;2023-01-31T12:46:33;94373.63;;;2.54;100.00
10946;BME280;5525;42.648;23.368;2023-01-31T12:49:27;94395.13;;;2.62;100.00
10946;BME280;5525;42.648;23.368;2023-01-31T12:52:07;94387.41;;;2.61;100.00
10946;BME280;5525;42.648;23.368;2023-01-31T12:54:51;94365.13;;;2.52;100.00
10946;BME280;5525;42.648;23.368;2023-01-31T12:57:32;94384.88;;;2.74;100.00
10946;BME280;5525;42.648;23.368;2023-01-31T13:00:13;94382.13;;;2.84;100.00
10946;BME280;5525;42.648;23.368;2023-01-31T13:02:51;94398.53;;;2.68;100.00
10946;BME280;5525;42.648;23.368;2023-01-31T13:05:27;94393.03;;;2.59;100.00
10946;BME280;5525;42.648;23.368;2023-01-31T13:08:02;94380.63;;;2.45;100.00
10946;BME280;5525;42.648;23.368;2023-01-31T13:10:39;94402.28;;;2.38;100.00
10946;BME280;5525;42.648;23.368;2023-01-31T13:13:16;94384.63;;;2.14;100.00
10946;BME280;5525;42.648;23.368;2023-01-31T13:15:50;94397.69;;;2.15;100.00
10946;BME280;5525;42.648;23.368;2023-01-31T13:18:23;94393.53;;;1.99;100.00
10946;BME280;5525;42.648;23.368;2023-01-31T13:20:55;94399.00;;;2.13;100.00
10946;BME280;5525;42.648;23.368;2023-01-31T13:23:28;94368.53;;;1.95;100.00
10946;BME280;5525;42.648;23.368;2023-01-31T13:26:04;94394.06;;;2.01;100.00
10946;BME280;5525;42.648;23.368;2023-01-31T13:28:41;94409.97;;;2.06;100.00
10946;BME280;5525;42.648;23.368;2023-01-31T13:31:16;94409.94;;;2.11;100.00
10946;BME280;5525;42.648;23.368;2023-01-31T13:33:51;94387.38;;;1.99;100.00
10946;BME280;5525;42.648;23.368;2023-01-31T13:36:28;94378.72;;;1.83;100.00
10946;BME280;5525;42.648;23.368;2023-01-31T13:39:06;94411.31;;;2.04;100.00
10946;BME280;5525;42.648;23.368;2023-01-31T13:41:37;94394.94;;;1.87;100.00
10946;BME280;5525;42.648;23.368;2023-01-31T13:44:12;94399.69;;;1.90;100.00
10946;BME280;5525;42.648;23.368;2023-01-31T13:46:46;94403.16;;;1.95;100.00
10946;BME280;5525;42.648;23.368;2023-01-31T13:49:18;94368.06;;;1.83;100.00
10946;BME280;5525;42.648;23.368;2023-01-31T13:51:50;94386.84;;;2.02;100.00
10946;BME280;5525;42.648;23.368;2023-01-31T13:54:21;94405.06;;;1.85;100.00
10946;BME280;5525;42.648;23.368;2023-01-31T13:56:54;94405.03;;;1.90;100.00
10946;BME280;5525;42.648;23.368;2023-01-31T13:59:23;94420.06;;;2.09;100.00
10946;BME280;5525;42.648;23.368;2023-01-31T14:01:53;94395.63;;;2.02;100.00